createdAt,value
2023-03-03T00:00:48.903Z,993.91
2023-03-03T00:01:48.931Z,993.93
2023-03-03T00:02:48.892Z,993.90
2023-03-03T00:03:48.961Z,993.97
2023-03-03T00:04:48.866Z,993.94
2023-03-03T00:05:48.854Z,993.94
2023-03-03T00:06:48.840Z,993.89
2023-03-03T00:07:48.850Z,993.92
2023-03-03T00:08:48.859Z,993.91
2023-03-03T00:09:48.831Z,993.95
2023-03-03T00:10:48.789Z,993.96
2023-03-03T00:11:48.812Z,993.94
2023-03-03T00:12:48.853Z,993.96
2023-03-03T00:13:48.786Z,993.95
2023-03-03T00:14:48.795Z,993.96
2023-03-03T00:15:48.770Z,993.95
2023-03-03T00:16:48.727Z,993.93
2023-03-03T00:17:48.748Z,993.93
2023-03-03T00:18:48.739Z,993.90
2023-03-03T00:19:48.730Z,993.91
2023-03-03T00:20:48.683Z,993.89
2023-03-03T00:21:48.705Z,993.90
2023-03-03T00:22:49.006Z,993.92
2023-03-03T00:23:48.665Z,993.94
2023-03-03T00:24:48.648Z,994.00
2023-03-03T00:25:48.668Z,993.95
2023-03-03T00:26:48.698Z,993.96
2023-03-03T00:27:48.650Z,993.97
2023-03-03T00:28:48.629Z,994.01
2023-03-03T00:29:48.620Z,994.02
2023-03-03T00:30:48.592Z,994.00
2023-03-03T00:31:48.586Z,994.04
2023-03-03T00:32:48.558Z,994.06
2023-03-03T00:33:48.566Z,994.06
2023-03-03T00:34:50.230Z,994.04
2023-03-03T00:35:48.579Z,994.05
2023-03-03T00:36:48.520Z,994.07
2023-03-03T00:37:48.519Z,994.05
2023-03-03T00:38:48.510Z,994.06
2023-03-03T00:39:48.539Z,994.04
2023-03-03T00:40:48.518Z,994.10
2023-03-03T00:41:48.529Z,994.11
2023-03-03T00:42:48.464Z,994.07
2023-03-03T00:43:48.489Z,994.05
2023-03-03T00:44:48.480Z,994.02
2023-03-03T00:45:48.523Z,994.00
2023-03-03T00:46:48.451Z,993.97
2023-03-03T00:47:48.431Z,994.01
2023-03-03T00:48:48.522Z,993.99
2023-03-03T00:49:48.411Z,993.93
2023-03-03T00:50:48.382Z,993.99
2023-03-03T00:51:49.049Z,993.95
2023-03-03T00:52:48.359Z,993.97
2023-03-03T00:53:48.384Z,994.00
2023-03-03T00:54:48.378Z,993.95
2023-03-03T00:55:48.386Z,993.99
2023-03-03T00:56:53.032Z,993.96
2023-03-03T00:57:48.334Z,993.98
2023-03-03T00:58:48.374Z,993.95
2023-03-03T00:59:48.321Z,993.99
2023-03-03T01:00:48.284Z,993.98
2023-03-03T01:01:48.355Z,994.03
2023-03-03T01:02:48.304Z,994.00
2023-03-03T01:03:48.259Z,993.94
2023-03-03T01:04:48.248Z,993.97
2023-03-03T01:05:48.241Z,993.98
2023-03-03T01:06:48.219Z,993.97
2023-03-03T01:07:48.234Z,993.95
2023-03-03T01:08:48.886Z,993.95
2023-03-03T01:09:48.224Z,993.96
2023-03-03T01:10:48.307Z,993.96
2023-03-03T01:11:48.175Z,993.90
2023-03-03T01:12:48.246Z,993.96
2023-03-03T01:13:48.174Z,993.92
2023-03-03T01:14:48.149Z,993.91
2023-03-03T01:15:48.218Z,993.90
2023-03-03T01:16:48.192Z,993.90
2023-03-03T01:17:48.138Z,993.88
2023-03-03T01:18:48.124Z,993.89
2023-03-03T01:19:48.082Z,993.86
2023-03-03T01:20:48.136Z,993.85
2023-03-03T01:21:48.105Z,993.91
2023-03-03T01:22:48.071Z,993.85
2023-03-03T01:23:48.052Z,993.82
2023-03-03T01:24:48.113Z,993.83
2023-03-03T01:25:48.027Z,993.82
2023-03-03T01:26:48.041Z,993.79
2023-03-03T01:27:48.014Z,993.80
2023-03-03T01:28:48.010Z,993.80
2023-03-03T01:29:48.011Z,993.79
2023-03-03T01:30:48.000Z,993.78
2023-03-03T01:31:48.022Z,993.79
2023-03-03T01:32:47.960Z,993.73
2023-03-03T01:33:47.931Z,993.73
2023-03-03T01:34:47.950Z,993.72
2023-03-03T01:35:47.974Z,993.70
2023-03-03T01:36:47.948Z,993.70
2023-03-03T01:37:47.892Z,993.69
2023-03-03T01:38:47.922Z,993.72
2023-03-03T01:39:47.891Z,993.70
2023-03-03T01:40:47.891Z,993.73
2023-03-03T01:41:47.874Z,993.73
2023-03-03T01:42:47.873Z,993.75
2023-03-03T01:43:47.859Z,993.72
2023-03-03T01:44:47.863Z,993.75
2023-03-03T01:45:47.809Z,993.73
2023-03-03T01:46:47.877Z,993.75
2023-03-03T01:47:47.831Z,993.77
2023-03-03T01:48:47.801Z,993.78
2023-03-03T01:49:47.804Z,993.85
2023-03-03T01:50:47.781Z,993.83
2023-03-03T01:51:47.751Z,993.83
2023-03-03T01:52:47.797Z,993.85
2023-03-03T01:53:47.732Z,993.84
2023-03-03T01:54:47.732Z,993.82
2023-03-03T01:55:47.719Z,993.83
2023-03-03T01:56:47.742Z,993.80
2023-03-03T01:57:47.711Z,993.86
2023-03-03T01:58:47.702Z,993.83
2023-03-03T01:59:47.670Z,993.88
2023-03-03T02:00:47.711Z,993.82
2023-03-03T02:01:47.737Z,993.80
2023-03-03T02:02:47.750Z,993.82
2023-03-03T02:03:47.658Z,993.79
2023-03-03T02:04:47.668Z,993.78
2023-03-03T02:05:47.610Z,993.76
2023-03-03T02:06:47.610Z,993.77
2023-03-03T02:07:47.594Z,993.82
2023-03-03T02:08:47.657Z,993.80
2023-03-03T02:09:47.611Z,993.86
2023-03-03T02:10:48.242Z,993.81
2023-03-03T02:11:47.545Z,993.84
2023-03-03T02:12:47.597Z,993.82
2023-03-03T02:13:47.554Z,993.79
2023-03-03T02:14:47.568Z,993.81
2023-03-03T02:15:47.573Z,993.77
2023-03-03T02:16:47.569Z,993.80
2023-03-03T02:17:47.535Z,993.83
2023-03-03T02:18:47.528Z,993.84
2023-03-03T02:19:47.488Z,993.89
2023-03-03T02:20:47.512Z,993.85
2023-03-03T02:21:47.528Z,993.87
2023-03-03T02:22:47.468Z,993.83
2023-03-03T02:23:47.425Z,993.89
2023-03-03T02:24:47.459Z,993.87
2023-03-03T02:25:47.400Z,993.87
2023-03-03T02:26:47.447Z,993.82
2023-03-03T02:27:47.409Z,993.88
2023-03-03T02:28:47.421Z,993.86
2023-03-03T02:29:47.400Z,993.87
2023-03-03T02:30:47.408Z,993.84
2023-03-03T02:31:47.418Z,993.86
2023-03-03T02:32:47.565Z,993.86
2023-03-03T02:33:48.299Z,993.90
2023-03-03T02:34:47.356Z,993.86
2023-03-03T02:35:47.399Z,993.88
2023-03-03T02:36:47.310Z,993.88
2023-03-03T02:37:47.340Z,993.86
2023-03-03T02:38:47.308Z,993.85
2023-03-03T02:39:47.280Z,993.85
2023-03-03T02:40:47.293Z,993.88
2023-03-03T02:41:47.240Z,993.94
2023-03-03T02:42:47.270Z,993.89
2023-03-03T02:43:47.243Z,993.93
2023-03-03T02:44:47.254Z,993.90
2023-03-03T02:45:47.233Z,993.87
2023-03-03T02:46:47.219Z,993.80
2023-03-03T02:47:47.210Z,993.86
2023-03-03T02:48:47.202Z,993.81
2023-03-03T02:49:47.179Z,993.83
2023-03-03T02:50:47.187Z,993.79
2023-03-03T02:51:47.147Z,993.82
2023-03-03T02:52:47.158Z,993.83
2023-03-03T02:53:47.153Z,993.78
2023-03-03T02:54:47.135Z,993.72
2023-03-03T02:55:47.113Z,993.70
2023-03-03T02:56:47.121Z,993.70
2023-03-03T02:57:47.106Z,993.71
2023-03-03T02:58:47.091Z,993.69
2023-03-03T02:59:47.070Z,993.66
2023-03-03T03:00:47.110Z,993.70
2023-03-03T03:01:47.042Z,993.64
2023-03-03T03:02:47.069Z,993.68
2023-03-03T03:03:47.026Z,993.70
2023-03-03T03:04:47.058Z,993.69
2023-03-03T03:05:47.018Z,993.70
2023-03-03T03:06:47.015Z,993.72
2023-03-03T03:07:47.004Z,993.66
2023-03-03T03:08:46.985Z,993.65
2023-03-03T03:09:47.001Z,993.64
2023-03-03T03:10:46.987Z,993.62
2023-03-03T03:11:46.977Z,993.66
2023-03-03T03:12:46.942Z,993.67
2023-03-03T03:13:46.958Z,993.64
2023-03-03T03:14:46.972Z,993.69
2023-03-03T03:15:46.924Z,993.72
2023-03-03T03:16:46.977Z,993.69
2023-03-03T03:17:46.913Z,993.71
2023-03-03T03:18:46.895Z,993.74
2023-03-03T03:19:46.851Z,993.81
2023-03-03T03:20:48.461Z,993.83
2023-03-03T03:21:46.883Z,993.85
2023-03-03T03:22:46.859Z,993.80
2023-03-03T03:23:46.814Z,993.85
2023-03-03T03:24:46.844Z,993.89
2023-03-03T03:25:46.800Z,993.87
2023-03-03T03:26:46.813Z,993.82
2023-03-03T03:27:46.814Z,993.89
2023-03-03T03:28:46.828Z,993.78
2023-03-03T03:29:46.776Z,993.86
2023-03-03T03:30:46.794Z,993.82
2023-03-03T03:31:46.774Z,993.82
2023-03-03T03:32:46.808Z,993.82
2023-03-03T03:33:46.738Z,993.86
2023-03-03T03:34:46.754Z,993.87
2023-03-03T03:35:46.744Z,993.92
2023-03-03T03:36:46.778Z,993.87
2023-03-03T03:37:46.673Z,993.88
2023-03-03T03:38:46.722Z,993.88
2023-03-03T03:39:46.674Z,993.87
2023-03-03T03:40:46.663Z,993.89
2023-03-03T03:41:46.634Z,993.88
2023-03-03T03:42:46.652Z,993.93
2023-03-03T03:43:46.642Z,993.94
2023-03-03T03:44:47.609Z,993.92
2023-03-03T03:45:46.603Z,993.93
2023-03-03T03:46:46.626Z,993.92
2023-03-03T03:47:46.595Z,993.92
2023-03-03T03:48:46.632Z,993.99
2023-03-03T03:49:46.586Z,993.92
2023-03-03T03:50:46.609Z,993.97
2023-03-03T03:51:46.589Z,993.97
2023-03-03T03:52:46.534Z,993.93
2023-03-03T03:53:46.538Z,993.93
2023-03-03T03:54:46.652Z,993.91
2023-03-03T03:55:46.526Z,993.94
2023-03-03T03:56:46.526Z,993.97
2023-03-03T03:57:46.495Z,994.01
2023-03-03T03:58:46.557Z,994.00
2023-03-03T03:59:46.480Z,994.02
2023-03-03T04:00:46.511Z,994.02
2023-03-03T04:01:46.455Z,994.04
2023-03-03T04:02:46.543Z,994.03
2023-03-03T04:03:46.460Z,994.06
2023-03-03T04:04:46.472Z,994.09
2023-03-03T04:05:46.419Z,994.08
2023-03-03T04:06:46.437Z,994.08
2023-03-03T04:08:42.404Z,994.11
2023-03-03T04:09:42.412Z,994.09
2023-03-03T04:10:42.384Z,994.08
2023-03-03T04:11:42.355Z,994.07
2023-03-03T04:12:42.326Z,994.08
2023-03-03T04:13:42.335Z,994.05
2023-03-03T04:14:42.323Z,994.04
2023-03-03T04:15:42.393Z,994.02
2023-03-03T04:16:42.285Z,994.00
2023-03-03T04:17:42.317Z,993.99
2023-03-03T04:18:42.274Z,993.99
2023-03-03T04:19:42.294Z,993.98
2023-03-03T04:20:42.244Z,994.06
2023-03-03T04:21:42.258Z,994.00
2023-03-03T04:22:42.217Z,994.04
2023-03-03T04:23:42.236Z,994.03
2023-03-03T04:24:42.208Z,994.01
2023-03-03T04:25:42.207Z,994.03
2023-03-03T04:26:42.212Z,994.05
2023-03-03T04:27:42.189Z,994.07
2023-03-03T04:28:42.184Z,994.04
2023-03-03T04:29:42.177Z,994.02
2023-03-03T04:30:42.208Z,994.03
2023-03-03T04:31:42.166Z,994.00
2023-03-03T04:32:42.119Z,993.99
2023-03-03T04:33:42.155Z,993.99
2023-03-03T04:34:42.098Z,994.02
2023-03-03T04:35:42.115Z,994.00
2023-03-03T04:36:42.101Z,993.96
2023-03-03T04:37:42.082Z,993.93
2023-03-03T04:38:42.079Z,994.00
2023-03-03T04:39:42.083Z,993.95
2023-03-03T04:40:42.056Z,993.96
2023-03-03T04:41:42.058Z,993.95
2023-03-03T04:42:42.021Z,993.97
2023-03-03T04:43:42.037Z,993.97
2023-03-03T04:44:42.015Z,993.99
2023-03-03T04:45:42.008Z,993.94
2023-03-03T04:46:41.974Z,993.98
2023-03-03T04:47:41.984Z,993.98
2023-03-03T04:48:41.990Z,993.95
2023-03-03T04:49:42.007Z,994.03
2023-03-03T04:50:41.948Z,993.98
2023-03-03T04:51:41.952Z,993.95
2023-03-03T04:52:41.926Z,993.96
2023-03-03T04:53:41.937Z,993.99
2023-03-03T04:54:41.922Z,993.99
2023-03-03T04:55:41.958Z,993.97
2023-03-03T04:56:41.887Z,994.02
2023-03-03T04:57:41.896Z,993.99
2023-03-03T04:58:41.859Z,994.01
2023-03-03T04:59:41.863Z,993.97
2023-03-03T05:00:41.878Z,994.00
2023-03-03T05:01:41.957Z,993.99
2023-03-03T05:02:41.814Z,994.00
2023-03-03T05:03:41.813Z,993.98
2023-03-03T05:04:41.838Z,993.98
2023-03-03T05:05:41.824Z,994.01
2023-03-03T05:06:41.803Z,993.98
2023-03-03T05:07:41.804Z,994.03
2023-03-03T05:08:41.762Z,994.04
2023-03-03T05:09:41.798Z,994.03
2023-03-03T05:10:41.733Z,994.01
2023-03-03T05:11:41.742Z,994.02
2023-03-03T05:12:41.722Z,994.05
2023-03-03T05:13:41.717Z,994.03
2023-03-03T05:14:41.686Z,994.04
2023-03-03T05:15:43.213Z,994.02
2023-03-03T05:16:41.667Z,994.04
2023-03-03T05:17:41.675Z,994.00
2023-03-03T05:18:41.705Z,994.00
2023-03-03T05:19:41.659Z,994.02
2023-03-03T05:20:41.677Z,994.04
2023-03-03T05:21:41.636Z,994.08
2023-03-03T05:22:41.613Z,994.09
2023-03-03T05:23:41.641Z,994.11
2023-03-03T05:24:41.587Z,994.14
2023-03-03T05:25:41.600Z,994.15
2023-03-03T05:26:41.617Z,994.16
2023-03-03T05:27:41.587Z,994.14
2023-03-03T05:28:41.583Z,994.16
2023-03-03T05:29:41.564Z,994.09
2023-03-03T05:30:41.525Z,994.11
2023-03-03T05:31:43.943Z,994.09
2023-03-03T05:32:41.515Z,994.10
2023-03-03T05:33:41.574Z,994.10
2023-03-03T05:34:41.501Z,994.15
2023-03-03T05:35:41.528Z,994.18
2023-03-03T05:36:41.478Z,994.15
2023-03-03T05:37:41.487Z,994.14
2023-03-03T05:38:41.466Z,994.16
2023-03-03T05:39:41.479Z,994.19
2023-03-03T05:40:41.426Z,994.12
2023-03-03T05:41:41.437Z,994.13
2023-03-03T05:42:41.487Z,994.15
2023-03-03T05:43:41.426Z,994.18
2023-03-03T05:44:41.374Z,994.16
2023-03-03T05:45:41.434Z,994.18
2023-03-03T05:46:41.400Z,994.19
2023-03-03T05:47:41.395Z,994.23
2023-03-03T05:48:41.435Z,994.21
2023-03-03T05:49:41.354Z,994.22
2023-03-03T05:50:41.343Z,994.18
2023-03-03T05:51:41.303Z,994.25
2023-03-03T05:52:41.326Z,994.23
2023-03-03T05:53:41.303Z,994.23
2023-03-03T05:54:41.329Z,994.26
2023-03-03T05:55:41.296Z,994.26
2023-03-03T05:56:41.302Z,994.32
2023-03-03T05:57:41.270Z,994.31
2023-03-03T05:58:41.270Z,994.39
2023-03-03T05:59:41.247Z,994.34
2023-03-03T06:00:41.258Z,994.36
2023-03-03T06:01:41.272Z,994.42
2023-03-03T06:02:42.249Z,994.40
2023-03-03T06:03:41.193Z,994.45
2023-03-03T06:04:41.236Z,994.45
2023-03-03T06:05:41.201Z,994.46
2023-03-03T06:06:41.178Z,994.41
2023-03-03T06:07:41.123Z,994.42
2023-03-03T06:08:41.144Z,994.51
2023-03-03T06:09:41.121Z,994.50
2023-03-03T06:10:41.112Z,994.52
2023-03-03T06:11:41.073Z,994.56
2023-03-03T06:12:41.073Z,994.53
2023-03-03T06:13:41.053Z,994.59
2023-03-03T06:14:41.046Z,994.60
2023-03-03T06:15:41.108Z,994.63
2023-03-03T06:16:41.088Z,994.65
2023-03-03T06:17:41.006Z,994.69
2023-03-03T06:18:41.013Z,994.69
2023-03-03T06:19:40.983Z,994.70
2023-03-03T06:20:41.017Z,994.74
2023-03-03T06:21:41.024Z,994.73
2023-03-03T06:22:40.992Z,994.78
2023-03-03T06:23:40.991Z,994.82
2023-03-03T06:24:40.992Z,994.77
2023-03-03T06:25:40.950Z,994.77
2023-03-03T06:26:40.949Z,994.75
2023-03-03T06:27:40.902Z,994.83
2023-03-03T06:28:40.923Z,994.77
2023-03-03T06:29:40.882Z,994.80
2023-03-03T06:30:40.899Z,994.80
2023-03-03T06:31:40.959Z,994.79
2023-03-03T06:32:40.980Z,994.81
2023-03-03T06:33:40.838Z,994.85
2023-03-03T06:34:40.856Z,994.85
2023-03-03T06:35:40.893Z,994.87
2023-03-03T06:36:40.827Z,994.92
2023-03-03T06:37:40.823Z,994.94
2023-03-03T06:38:41.480Z,994.91
2023-03-03T06:39:40.799Z,994.95
2023-03-03T06:40:40.821Z,994.93
2023-03-03T06:41:40.798Z,994.95
2023-03-03T06:42:40.804Z,994.93
2023-03-03T06:43:40.765Z,994.95
2023-03-03T06:44:40.799Z,994.96
2023-03-03T06:45:40.786Z,994.99
2023-03-03T06:46:40.729Z,995.03
2023-03-03T06:47:40.726Z,995.03
2023-03-03T06:48:40.698Z,995.07
2023-03-03T06:49:40.677Z,995.09
2023-03-03T06:50:40.709Z,995.06
2023-03-03T06:51:40.658Z,995.14
2023-03-03T06:52:40.678Z,995.16
2023-03-03T06:53:40.657Z,995.26
2023-03-03T06:54:40.681Z,995.30
2023-03-03T06:55:40.630Z,995.33
2023-03-03T06:56:40.637Z,995.43
2023-03-03T06:57:40.596Z,995.45
2023-03-03T06:58:40.596Z,995.46
2023-03-03T06:59:40.625Z,995.46
2023-03-03T07:00:40.586Z,995.51
2023-03-03T07:01:40.556Z,995.46
2023-03-03T07:02:40.596Z,995.43
2023-03-03T07:03:40.540Z,995.46
2023-03-03T07:04:40.562Z,995.48
2023-03-03T07:05:40.535Z,995.48
2023-03-03T07:06:40.558Z,995.50
2023-03-03T07:07:40.519Z,995.53
2023-03-03T07:08:40.535Z,995.56
2023-03-03T07:09:40.488Z,995.57
2023-03-03T07:10:40.507Z,995.55
2023-03-03T07:11:40.470Z,995.57
2023-03-03T07:12:40.488Z,995.54
2023-03-03T07:13:40.456Z,995.60
2023-03-03T07:14:40.468Z,995.66
2023-03-03T07:15:40.420Z,995.63
2023-03-03T07:16:40.472Z,995.67
2023-03-03T07:17:40.401Z,995.65
2023-03-03T07:18:40.420Z,995.63
2023-03-03T07:19:40.372Z,995.65
2023-03-03T07:20:40.411Z,995.61
2023-03-03T07:21:40.403Z,995.59
2023-03-03T07:22:40.384Z,995.56
2023-03-03T07:23:40.426Z,995.53
2023-03-03T07:24:40.357Z,995.53
2023-03-03T07:25:40.375Z,995.54
2023-03-03T07:26:40.369Z,995.62
2023-03-03T07:27:40.317Z,995.57
2023-03-03T07:28:40.325Z,995.61
2023-03-03T07:29:40.322Z,995.65
2023-03-03T07:30:40.343Z,995.61
2023-03-03T07:31:40.291Z,995.61
2023-03-03T07:32:40.275Z,995.67
2023-03-03T07:33:40.276Z,995.66
2023-03-03T07:34:40.260Z,995.74
2023-03-03T07:35:40.267Z,995.70
2023-03-03T07:36:40.226Z,995.67
2023-03-03T07:37:40.245Z,995.69
2023-03-03T07:38:40.197Z,995.64
2023-03-03T07:39:40.725Z,995.71
2023-03-03T07:40:40.187Z,995.70
2023-03-03T07:41:40.188Z,995.69
2023-03-03T07:42:40.859Z,995.73
2023-03-03T07:43:40.166Z,995.75
2023-03-03T07:44:40.147Z,995.77
2023-03-03T07:45:40.153Z,995.78
2023-03-03T07:46:40.126Z,995.74
2023-03-03T07:47:40.107Z,995.77
2023-03-03T07:48:40.099Z,995.80
2023-03-03T07:49:40.107Z,995.80
2023-03-03T07:50:40.110Z,995.82
2023-03-03T07:51:40.089Z,995.80
2023-03-03T07:52:40.066Z,995.89
2023-03-03T07:53:40.097Z,995.82
2023-03-03T07:54:40.042Z,995.78
2023-03-03T07:55:40.030Z,995.78
2023-03-03T07:56:40.063Z,995.80
2023-03-03T07:57:40.126Z,995.81
2023-03-03T07:58:40.039Z,995.80
2023-03-03T07:59:40.013Z,995.76
2023-03-03T08:00:40.011Z,995.81
2023-03-03T08:01:40.063Z,995.78
2023-03-03T08:02:40.032Z,995.79
2023-03-03T08:03:39.961Z,995.81
2023-03-03T08:04:40.069Z,995.85
2023-03-03T08:05:39.958Z,995.83
2023-03-03T08:06:39.912Z,995.88
2023-03-03T08:07:39.949Z,995.85
2023-03-03T08:08:39.891Z,995.84
2023-03-03T08:09:39.959Z,995.87
2023-03-03T08:10:41.767Z,995.79
2023-03-03T08:11:39.884Z,995.83
2023-03-03T08:12:39.901Z,995.84
2023-03-03T08:13:39.856Z,995.82
2023-03-03T08:14:39.833Z,995.81
2023-03-03T08:15:39.866Z,995.86
2023-03-03T08:16:39.811Z,995.83
2023-03-03T08:17:39.829Z,995.81
2023-03-03T08:18:39.802Z,995.82
2023-03-03T08:19:39.799Z,995.76
2023-03-03T08:20:39.759Z,995.76
2023-03-03T08:21:39.767Z,995.69
2023-03-03T08:22:39.750Z,995.65
2023-03-03T08:23:39.734Z,995.69
2023-03-03T08:24:39.724Z,995.65
2023-03-03T08:25:39.721Z,995.68
2023-03-03T08:26:39.774Z,995.69
2023-03-03T08:27:39.683Z,995.75
2023-03-03T08:28:39.705Z,995.74
2023-03-03T08:29:39.692Z,995.71
2023-03-03T08:30:39.663Z,995.72
2023-03-03T08:31:41.911Z,995.74
2023-03-03T08:32:39.703Z,995.72
2023-03-03T08:33:39.646Z,995.73
2023-03-03T08:34:40.143Z,995.72
2023-03-03T08:35:39.627Z,995.74
2023-03-03T08:36:39.589Z,995.75
2023-03-03T08:37:39.612Z,995.76
2023-03-03T08:38:39.579Z,995.74
2023-03-03T08:39:39.578Z,995.77
2023-03-03T08:40:39.558Z,995.72
2023-03-03T08:41:39.559Z,995.71
2023-03-03T08:42:39.518Z,995.72
2023-03-03T08:43:39.529Z,995.71
2023-03-03T08:44:39.499Z,995.63
2023-03-03T08:45:39.535Z,995.71
2023-03-03T08:46:39.513Z,995.66
2023-03-03T08:47:39.498Z,995.66
2023-03-03T08:48:39.481Z,995.67
2023-03-03T08:49:39.482Z,995.66
2023-03-03T08:50:39.693Z,995.64
2023-03-03T08:51:39.494Z,995.63
2023-03-03T08:52:39.445Z,995.61
2023-03-03T08:53:39.468Z,995.67
2023-03-03T08:54:39.424Z,995.65
2023-03-03T08:55:39.410Z,995.69
2023-03-03T08:56:39.504Z,995.72
2023-03-03T08:57:39.402Z,995.74
2023-03-03T08:58:40.774Z,995.69
2023-03-03T08:59:39.385Z,995.65
2023-03-03T09:00:39.378Z,995.72
2023-03-03T09:01:39.423Z,995.64
2023-03-03T09:02:39.346Z,995.71
2023-03-03T09:03:39.343Z,995.73
2023-03-03T09:04:39.346Z,995.69
2023-03-03T09:05:39.316Z,995.67
2023-03-03T09:06:39.303Z,995.68
2023-03-03T09:07:39.292Z,995.65
2023-03-03T09:09:36.024Z,995.81
2023-03-03T09:10:36.074Z,995.72
2023-03-03T09:11:35.976Z,995.78
2023-03-03T09:12:36.002Z,995.82
2023-03-03T09:13:35.973Z,995.73
2023-03-03T09:14:35.962Z,995.73
2023-03-03T09:15:35.940Z,995.72
2023-03-03T09:16:36.686Z,995.75
2023-03-03T09:17:35.932Z,995.66
2023-03-03T09:18:35.934Z,995.69
2023-03-03T09:19:37.315Z,995.71
2023-03-03T09:20:35.922Z,995.75
2023-03-03T09:21:35.903Z,995.76
2023-03-03T09:22:35.903Z,995.73
2023-03-03T09:23:35.903Z,995.71
2023-03-03T09:24:35.842Z,995.76
2023-03-03T09:25:35.894Z,995.78
2023-03-03T09:26:35.922Z,995.82
2023-03-03T09:27:35.827Z,995.89
2023-03-03T09:28:35.800Z,995.86
2023-03-03T09:29:35.833Z,995.95
2023-03-03T09:30:35.799Z,995.96
2023-03-03T09:31:35.849Z,996.04
2023-03-03T09:32:35.838Z,996.02
2023-03-03T09:33:35.782Z,996.06
2023-03-03T09:34:35.744Z,996.01
2023-03-03T09:35:35.884Z,995.98
2023-03-03T09:36:35.730Z,995.98
2023-03-03T09:37:35.763Z,996.06
2023-03-03T09:38:35.702Z,996.04
2023-03-03T09:39:35.718Z,996.01
2023-03-03T09:40:35.678Z,995.96
2023-03-03T09:41:36.210Z,995.94
2023-03-03T09:42:35.680Z,995.95
2023-03-03T09:43:35.661Z,996.00
2023-03-03T09:44:35.640Z,995.98
2023-03-03T09:45:35.640Z,996.00
2023-03-03T09:46:35.672Z,996.02
2023-03-03T09:47:35.629Z,996.05
2023-03-03T09:48:35.603Z,996.02
2023-03-03T09:49:35.601Z,996.07
2023-03-03T09:50:35.622Z,996.03
2023-03-03T09:51:35.640Z,996.02
2023-03-03T09:52:35.565Z,996.07
2023-03-03T09:53:35.571Z,996.01
2023-03-03T09:54:35.561Z,996.03
2023-03-03T09:55:37.024Z,996.03
2023-03-03T09:56:35.612Z,996.04
2023-03-03T09:57:35.561Z,996.05
2023-03-03T09:58:35.631Z,996.00
2023-03-03T09:59:35.493Z,996.01
2023-03-03T10:00:35.525Z,996.08
2023-03-03T10:01:35.503Z,996.07
2023-03-03T10:02:35.529Z,996.15
2023-03-03T10:03:35.722Z,996.06
2023-03-03T10:04:35.440Z,996.14
2023-03-03T10:05:35.440Z,996.10
2023-03-03T10:06:35.426Z,996.14
2023-03-03T10:07:35.437Z,996.06
2023-03-03T10:08:35.381Z,996.07
2023-03-03T10:09:35.431Z,996.06
2023-03-03T10:10:35.371Z,996.09
2023-03-03T10:11:35.369Z,996.10
2023-03-03T10:12:35.394Z,996.13
2023-03-03T10:13:35.375Z,996.14
2023-03-03T10:14:35.702Z,996.14
2023-03-03T10:15:35.393Z,996.18
2023-03-03T10:16:35.409Z,996.18
2023-03-03T10:17:35.354Z,996.12
2023-03-03T10:18:35.299Z,996.14
2023-03-03T10:19:35.312Z,996.05
2023-03-03T10:20:49.111Z,996.06
2023-03-03T10:21:36.271Z,996.11
2023-03-03T10:22:35.246Z,996.12
2023-03-03T10:23:35.253Z,996.20
2023-03-03T10:24:35.224Z,996.15
2023-03-03T10:25:35.237Z,996.03
2023-03-03T10:26:44.694Z,996.10
2023-03-03T10:27:37.211Z,996.12
2023-03-03T10:28:35.208Z,996.09
2023-03-03T10:29:35.209Z,996.02
2023-03-03T10:30:42.709Z,996.04
2023-03-03T10:31:36.198Z,996.02
2023-03-03T10:32:35.317Z,996.08
2023-03-03T10:33:35.768Z,996.05
2023-03-03T10:34:35.133Z,996.07
2023-03-03T10:35:35.166Z,996.08
2023-03-03T10:36:35.106Z,996.10
2023-03-03T10:37:35.102Z,996.09
2023-03-03T10:38:35.558Z,996.08
2023-03-03T10:39:35.111Z,996.03
2023-03-03T10:40:35.118Z,996.04
2023-03-03T10:41:35.057Z,996.03
2023-03-03T10:42:35.051Z,996.01
2023-03-03T10:43:35.201Z,996.01
2023-03-03T10:44:35.055Z,996.02
2023-03-03T10:45:35.096Z,996.02
2023-03-03T10:46:35.010Z,996.05
2023-03-03T10:47:35.020Z,996.06
2023-03-03T10:48:35.015Z,996.06
2023-03-03T10:49:35.023Z,996.03
2023-03-03T10:50:34.973Z,996.00
2023-03-03T10:51:34.974Z,995.99
2023-03-03T10:52:34.945Z,995.96
2023-03-03T10:53:34.932Z,995.97
2023-03-03T10:54:34.998Z,996.06
2023-03-03T10:55:36.435Z,996.00
2023-03-03T10:56:50.325Z,996.01
2023-03-03T10:57:35.893Z,996.00
2023-03-03T10:58:35.093Z,995.97
2023-03-03T10:59:34.917Z,995.96
2023-03-03T11:00:34.868Z,995.98
2023-03-03T11:01:34.957Z,995.97
2023-03-03T11:02:35.547Z,995.94
2023-03-03T11:03:34.856Z,995.98
2023-03-03T11:04:34.904Z,995.92
2023-03-03T11:05:35.201Z,995.97
2023-03-03T11:06:34.877Z,995.95
2023-03-03T11:07:34.785Z,995.90
2023-03-03T11:08:34.794Z,995.93
2023-03-03T11:09:34.813Z,995.93
2023-03-03T11:10:34.766Z,995.95
2023-03-03T11:11:34.757Z,995.86
2023-03-03T11:12:34.756Z,995.86
2023-03-03T11:13:34.727Z,995.84
2023-03-03T11:14:34.758Z,995.85
2023-03-03T11:15:34.813Z,995.87
2023-03-03T11:16:34.778Z,995.87
2023-03-03T11:17:34.673Z,995.86
2023-03-03T11:18:34.681Z,995.84
2023-03-03T11:19:34.664Z,995.85
2023-03-03T11:20:34.663Z,995.88
2023-03-03T11:21:34.678Z,995.83
2023-03-03T11:22:34.646Z,995.80
2023-03-03T11:23:34.605Z,995.82
2023-03-03T11:24:34.638Z,995.76
2023-03-03T11:25:34.616Z,995.77
2023-03-03T11:26:39.369Z,995.76
2023-03-03T11:27:34.621Z,995.76
2023-03-03T11:28:34.597Z,995.81
2023-03-03T11:29:34.590Z,995.67
2023-03-03T11:30:34.641Z,995.72
2023-03-03T11:31:34.579Z,995.68
2023-03-03T11:32:34.616Z,995.62
2023-03-03T11:33:34.644Z,995.65
2023-03-03T11:34:34.522Z,995.66
2023-03-03T11:35:34.538Z,995.64
2023-03-03T11:36:35.126Z,995.60
2023-03-03T11:37:34.479Z,995.64
2023-03-03T11:38:34.492Z,995.62
2023-03-03T11:39:34.472Z,995.56
2023-03-03T11:40:34.458Z,995.53
2023-03-03T11:41:36.148Z,995.57
2023-03-03T11:42:34.451Z,995.56
2023-03-03T11:43:37.351Z,995.58
2023-03-03T11:44:34.460Z,995.55
2023-03-03T11:45:34.442Z,995.53
2023-03-03T11:46:34.431Z,995.52
2023-03-03T11:47:34.451Z,995.48
2023-03-03T11:48:34.434Z,995.51
2023-03-03T11:49:34.412Z,995.43
2023-03-03T11:50:34.372Z,995.43
2023-03-03T11:51:34.382Z,995.43
2023-03-03T11:52:34.340Z,995.40
2023-03-03T11:53:34.332Z,995.41
2023-03-03T11:54:34.347Z,995.38
2023-03-03T11:55:34.300Z,995.41
2023-03-03T11:56:34.405Z,995.41
2023-03-03T11:57:34.312Z,995.41
2023-03-03T11:58:34.301Z,995.44
2023-03-03T11:59:34.286Z,995.34
2023-03-03T12:00:34.293Z,995.37
2023-03-03T12:01:34.239Z,995.42
2023-03-03T12:02:34.289Z,995.40
2023-03-03T12:03:34.248Z,995.34
2023-03-03T12:04:34.256Z,995.35
2023-03-03T12:05:34.185Z,995.37
2023-03-03T12:06:34.231Z,995.38
2023-03-03T12:07:34.168Z,995.34
2023-03-03T12:08:34.199Z,995.34
2023-03-03T12:09:35.108Z,995.40
2023-03-03T12:10:34.168Z,995.32
2023-03-03T12:11:34.128Z,995.32
2023-03-03T12:12:34.201Z,995.31
2023-03-03T12:13:34.126Z,995.27
2023-03-03T12:14:34.132Z,995.26
2023-03-03T12:15:34.277Z,995.24
2023-03-03T12:16:34.085Z,995.20
2023-03-03T12:17:34.067Z,995.20
2023-03-03T12:18:34.236Z,995.19
2023-03-03T12:19:34.063Z,995.20
2023-03-03T12:20:34.072Z,995.18
2023-03-03T12:21:34.030Z,995.17
2023-03-03T12:22:34.054Z,995.22
2023-03-03T12:23:34.030Z,995.19
2023-03-03T12:24:34.011Z,995.18
2023-03-03T12:25:34.060Z,995.15
2023-03-03T12:26:34.055Z,995.10
2023-03-03T12:27:34.008Z,995.11
2023-03-03T12:28:34.200Z,995.09
2023-03-03T12:29:33.984Z,995.04
2023-03-03T12:30:33.972Z,995.03